Time;durP1;ratioP1;P1;durP2;ratioP2;P2;SDS_P1;SDS_P2;PMS_P1;PMS_P2;Temp;Humidity;BMP_temperature;BMP_pressure;BME280_temperature;BME280_humidity;BME280_pressure;Samples;Min_cycle;Max_cycle;Signal;HPM_P1;HPM_P2
2021/08/21 00:02:01;;;;;;;3.83;2.45;;;;;;;23.90;49.81;101585.13;5043221;28;20056;-61
2021/08/21 00:04:27;;;;;;;2.22;1.65;;;;;;;23.87;49.08;101586.34;5041587;28;20053;-61
2021/08/21 00:06:52;;;;;;;2.45;1.60;;;;;;;23.84;49.73;101580.44;5041142;28;20112;-61
2021/08/21 00:09:18;;;;;;;3.70;1.65;;;;;;;23.81;49.42;101583.56;5041624;28;20126;-61
2021/08/21 00:11:43;;;;;;;3.60;2.25;;;;;;;23.80;49.71;101577.25;5043486;28;20057;-61
2021/08/21 00:14:08;;;;;;;6.25;1.90;;;;;;;23.77;49.73;101578.50;5041740;28;20025;-61
2021/08/21 00:16:34;;;;;;;6.13;1.65;;;;;;;23.78;49.39;101571.94;5042204;28;20449;-61
2021/08/21 00:19:00;;;;;;;1.50;1.40;;;;;;;23.77;48.90;101574.91;5042301;28;20032;-61
2021/08/21 00:21:26;;;;;;;1.25;1.13;;;;;;;23.74;49.35;101573.41;5041356;28;20021;-61
2021/08/21 00:23:51;;;;;;;1.65;0.93;;;;;;;23.72;49.52;101578.25;5041444;28;20043;-61
2021/08/21 00:26:17;;;;;;;3.72;1.45;;;;;;;23.69;49.33;101572.31;5043819;28;20029;-61
2021/08/21 00:28:42;;;;;;;2.20;1.42;;;;;;;23.67;49.78;101583.44;5044596;28;20414;-61
2021/08/21 00:31:07;;;;;;;6.22;1.88;;;;;;;23.67;49.28;101574.41;5035909;28;20191;-60
2021/08/21 00:33:33;;;;;;;1.80;1.70;;;;;;;23.65;49.14;101574.56;5038407;28;20390;-61
2021/08/21 00:35:58;;;;;;;1.67;1.25;;;;;;;23.64;48.92;101570.16;5038315;28;20474;-60
2021/08/21 00:38:24;;;;;;;2.88;2.20;;;;;;;23.62;49.15;101569.50;5038028;28;20029;-61
2021/08/21 00:40:49;;;;;;;2.00;1.70;;;;;;;23.61;50.10;101573.28;5038108;28;20462;-61
2021/08/21 00:43:16;;;;;;;4.55;2.72;;;;;;;23.61;49.25;101567.81;5037714;28;20025;-61
2021/08/21 00:45:41;;;;;;;4.60;2.20;;;;;;;23.61;49.98;101564.25;5038566;28;20366;-61
2021/08/21 00:48:07;;;;;;;2.90;2.22;;;;;;;23.62;49.33;101563.16;5038280;28;20029;-61
2021/08/21 00:50:33;;;;;;;5.07;1.98;;;;;;;23.62;49.92;101563.16;5038128;28;20042;-61
2021/08/21 00:52:58;;;;;;;4.35;2.42;;;;;;;23.61;50.21;101561.50;5038142;28;20093;-61
2021/08/21 00:55:25;;;;;;;3.42;2.38;;;;;;;23.61;49.36;101558.75;5037920;28;20033;-60
2021/08/21 00:57:50;;;;;;;2.00;1.80;;;;;;;23.60;49.63;101566.13;5037404;28;20026;-61
2021/08/21 01:00:16;;;;;;;6.30;2.47;;;;;;;23.61;50.31;101570.56;5035538;28;20041;-63
2021/08/21 01:02:41;;;;;;;6.43;3.05;;;;;;;23.62;49.60;101564.03;5036896;28;20104;-61
2021/08/21 01:05:08;;;;;;;3.05;2.10;;;;;;;23.62;49.52;101558.56;5036867;28;20079;-61
2021/08/21 01:07:36;;;;;;;2.78;2.10;;;;;;;23.63;50.34;101562.13;5018954;28;20486;-61
2021/08/21 01:10:06;;;;;;;4.18;2.10;;;;;;;23.63;50.04;101560.25;5036469;28;20072;-61
2021/08/21 01:12:32;;;;;;;5.32;2.38;;;;;;;23.63;50.17;101557.53;5036818;28;20473;-61
2021/08/21 01:14:57;;;;;;;2.85;2.28;;;;;;;23.66;50.55;101559.88;5036712;28;20036;-64
2021/08/21 01:17:23;;;;;;;3.00;2.13;;;;;;;23.65;50.55;101558.16;5036811;28;20475;-61
2021/08/21 01:19:49;;;;;;;3.83;2.65;;;;;;;23.65;50.59;101558.16;5036684;28;20108;-61
2021/08/21 01:22:17;;;;;;;3.45;2.10;;;;;;;23.67;49.66;101558.81;5035062;28;20541;-62
2021/08/21 01:24:43;;;;;;;3.13;2.00;;;;;;;23.67;50.30;101556.06;5018494;28;20030;-61
2021/08/21 01:27:25;;;;;;;5.15;2.58;;;;;;;23.67;50.11;101545.13;5034979;28;20037;-61
2021/08/21 01:29:51;;;;;;;3.08;2.53;;;;;;;23.66;50.04;101548.91;5034934;28;20147;-63
2021/08/21 01:32:17;;;;;;;4.55;2.58;;;;;;;23.70;49.74;101557.59;5035652;28;20044;-61
2021/08/21 01:34:43;;;;;;;5.65;3.00;;;;;;;23.69;50.25;101548.53;5036363;28;20352;-61
2021/08/21 01:37:09;;;;;;;4.32;2.88;;;;;;;23.71;50.30;101551.06;5036740;28;20037;-61
2021/08/21 01:39:35;;;;;;;3.35;2.40;;;;;;;23.71;49.96;101546.44;5036301;28;20031;-61
2021/08/21 01:42:01;;;;;;;3.28;2.85;;;;;;;23.73;50.17;101555.28;5035840;28;20030;-61
2021/08/21 01:44:26;;;;;;;5.55;2.45;;;;;;;23.75;50.76;101547.75;5034887;28;20533;-61
2021/08/21 01:46:52;;;;;;;9.90;2.65;;;;;;;23.75;50.81;101542.28;5036003;28;20029;-61
2021/08/21 01:49:18;;;;;;;7.82;2.72;;;;;;;23.73;50.29;101541.59;5036278;28;20056;-61
2021/08/21 01:51:46;;;;;;;3.92;2.17;;;;;;;23.77;50.46;101550.28;5035899;28;20040;-61
2021/08/21 01:54:16;;;;;;;6.30;3.03;;;;;;;23.78;50.36;101550.06;5036076;28;20059;-61
2021/08/21 01:56:53;;;;;;;6.03;3.05;;;;;;;23.75;50.48;101544.16;5034675;28;20100;-61
2021/08/21 01:59:40;;;;;;;6.25;2.60;;;;;;;23.77;50.81;101542.91;5035594;28;20135;-61
2021/08/21 02:02:07;;;;;;;5.68;2.97;;;;;;;23.76;50.73;101549.41;5034380;28;20386;-61
2021/08/21 02:04:33;;;;;;;6.35;2.35;;;;;;;23.77;49.92;101542.06;5035858;28;20029;-60
2021/08/21 02:06:59;;;;;;;4.20;2.22;;;;;;;23.77;50.83;101537.44;5036410;28;20038;-61
2021/08/21 02:09:25;;;;;;;7.55;2.33;;;;;;;23.77;50.93;101540.19;5034039;28;20383;-61
2021/08/21 02:11:52;;;;;;;5.47;2.83;;;;;;;23.77;50.89;101547.53;5035659;28;20033;-61
2021/08/21 02:14:18;;;;;;;3.40;2.15;;;;;;;23.76;50.00;101543.09;5034763;28;20022;-61
2021/08/21 02:16:46;;;;;;;3.17;2.63;;;;;;;23.75;50.29;101545.00;5034476;28;20036;-61
2021/08/21 02:19:11;;;;;;;3.92;2.65;;;;;;;23.74;50.34;101543.31;5035581;28;20021;-61
2021/08/21 02:21:38;;;;;;;3.80;1.98;;;;;;;23.73;50.79;101541.59;5034054;28;20103;-61
2021/08/21 02:24:04;;;;;;;5.03;2.60;;;;;;;23.73;50.16;101535.28;5035430;28;20034;-61
2021/08/21 02:26:30;;;;;;;7.40;2.20;;;;;;;23.71;50.86;101532.75;5034120;28;20033;-61
2021/08/21 02:28:55;;;;;;;3.55;2.67;;;;;;;23.73;51.19;101543.47;5033852;28;20378;-61
2021/08/21 02:31:21;;;;;;;6.55;3.35;;;;;;;23.72;50.49;101537.19;5035303;28;20533;-61
2021/08/21 02:33:47;;;;;;;5.28;2.33;;;;;;;23.73;51.17;101538.88;5036130;28;20033;-61
2021/08/21 02:36:13;;;;;;;3.22;2.42;;;;;;;23.72;50.92;101537.19;5034927;28;20117;-61
2021/08/21 02:38:39;;;;;;;3.90;2.53;;;;;;;23.71;50.69;101532.75;5033973;28;20450;-60
2021/08/21 02:41:05;;;;;;;3.80;2.40;;;;;;;23.71;51.04;101535.50;5033595;28;20036;-61
2021/08/21 02:43:30;;;;;;;6.90;2.47;;;;;;;23.70;50.34;101539.25;5033971;28;20051;-61
2021/08/21 02:45:55;;;;;;;6.25;3.08;;;;;;;23.69;50.70;101534.84;5033556;28;20035;-61
2021/08/21 02:48:21;;;;;;;7.45;2.78;;;;;;;23.65;50.36;101525.34;5035006;28;20035;-61
2021/08/21 02:50:46;;;;;;;8.82;2.53;;;;;;;23.68;51.24;101535.88;5034633;28;20049;-61
2021/08/21 02:53:12;;;;;;;3.42;2.60;;;;;;;23.66;50.74;101543.44;5034013;28;20109;-61
2021/08/21 02:55:37;;;;;;;8.63;3.33;;;;;;;23.66;51.07;101537.97;5034843;28;20463;-61
2021/08/21 02:58:03;;;;;;;6.97;2.97;;;;;;;23.65;50.29;101536.28;5034996;28;20036;-61
2021/08/21 03:00:28;;;;;;;3.92;2.55;;;;;;;23.64;51.14;101539.22;5034836;28;20418;-61
2021/08/21 03:02:53;;;;;;;4.60;2.92;;;;;;;23.62;51.17;101536.66;5033574;28;20058;-61
2021/08/21 03:05:19;;;;;;;3.92;2.40;;;;;;;23.59;50.60;101530.75;5034390;28;20112;-61
2021/08/21 03:07:44;;;;;;;5.65;2.50;;;;;;;23.53;51.01;101531.53;5034709;28;20496;-61
2021/08/21 03:10:10;;;;;;;5.38;2.60;;;;;;;23.56;50.15;101539.38;5034178;28;20123;-61
2021/08/21 03:12:35;;;;;;;8.27;2.58;;;;;;;23.49;50.69;101531.09;5034821;28;20029;-61
2021/08/21 03:15:01;;;;;;;3.10;2.03;;;;;;;23.50;50.32;101538.25;5034588;28;20029;-61
2021/08/21 03:17:27;;;;;;;3.75;2.15;;;;;;;23.48;50.15;101540.31;5034370;28;20029;-61
2021/08/21 03:19:52;;;;;;;3.22;1.92;;;;;;;23.44;50.11;101533.56;5034537;28;20377;-61
2021/08/21 03:22:18;;;;;;;3.92;2.00;;;;;;;23.41;50.88;101542.16;5034678;28;20034;-61
2021/08/21 03:24:43;;;;;;;2.58;2.08;;;;;;;23.36;50.49;101536.41;5032833;28;20386;-61
2021/08/21 03:27:09;;;;;;;4.22;1.90;;;;;;;23.32;50.53;101542.44;5034198;28;20041;-61
2021/08/21 03:29:34;;;;;;;3.33;3.03;;;;;;;23.27;50.94;101540.31;5033932;28;20425;-60
2021/08/21 03:32:00;;;;;;;4.03;1.85;;;;;;;23.25;50.59;101545.13;5032714;28;20029;-62
2021/08/21 03:34:25;;;;;;;5.20;2.13;;;;;;;23.24;50.20;101540.69;5034499;28;20056;-61
2021/08/21 03:36:51;;;;;;;2.63;2.03;;;;;;;23.20;50.14;101528.44;5034170;28;20160;-61
2021/08/21 03:39:17;;;;;;;8.48;2.00;;;;;;;23.16;50.54;101535.34;5033820;28;20029;-61
2021/08/21 03:41:42;;;;;;;1.63;1.10;;;;;;;23.14;50.97;101531.97;5033280;28;20511;-61
2021/08/21 03:44:08;;;;;;;1.42;1.33;;;;;;;23.12;50.77;101534.88;5034253;28;20201;-61
2021/08/21 03:46:33;;;;;;;2.00;1.58;;;;;;;23.09;50.12;101537.16;5034065;28;20126;-61
2021/08/21 03:48:59;;;;;;;2.20;1.95;;;;;;;23.04;50.67;101528.69;5033908;28;20097;-61
2021/08/21 03:51:24;;;;;;;4.47;2.35;;;;;;;23.03;51.14;101527.84;5033979;28;20026;-61
2021/08/21 03:53:50;;;;;;;3.88;2.47;;;;;;;23.01;50.51;101526.34;5033660;28;20381;-61
2021/08/21 03:56:15;;;;;;;1.98;1.73;;;;;;;22.98;50.76;101526.72;5033619;28;20104;-61
2021/08/21 03:58:40;;;;;;;6.63;1.65;;;;;;;22.97;50.18;101531.38;5034017;28;20419;-61
2021/08/21 04:01:06;;;;;;;2.25;1.40;;;;;;;22.95;50.15;101532.56;5034057;28;20040;-61
2021/08/21 04:03:31;;;;;;;6.20;2.38;;;;;;;22.93;50.49;101521.00;5033732;28;20037;-61
2021/08/21 04:05:56;;;;;;;3.60;2.38;;;;;;;22.89;50.88;101522.44;5033500;28;20037;-61
2021/08/21 04:08:22;;;;;;;3.72;1.77;;;;;;;22.87;50.02;101519.03;5033547;28;20112;-61
2021/08/21 04:10:47;;;;;;;1.10;1.00;;;;;;;22.83;51.14;101526.78;5033637;28;20072;-61
2021/08/21 04:13:12;;;;;;;1.75;1.38;;;;;;;22.79;50.98;101513.66;5032782;28;20044;-61
2021/08/21 04:15:38;;;;;;;3.03;2.22;;;;;;;22.77;50.72;101522.06;5033425;28;20036;-61
2021/08/21 04:18:03;;;;;;;3.05;1.95;;;;;;;22.75;50.61;101521.44;5032246;28;20044;-62
2021/08/21 04:20:28;;;;;;;4.45;1.60;;;;;;;22.73;50.05;101522.63;5032366;28;20109;-61
2021/08/21 04:22:56;;;;;;;3.03;1.90;;;;;;;22.72;50.91;101520.97;5033517;28;20030;-61
2021/08/21 04:25:21;;;;;;;2.88;1.95;;;;;;;22.65;49.94;101504.47;5033249;28;20025;-61
2021/08/21 04:27:47;;;;;;;5.32;2.17;;;;;;;22.70;50.87;101517.56;5032021;28;20041;-61
2021/08/21 04:30:14;;;;;;;3.17;1.92;;;;;;;22.68;50.27;101511.44;5033287;28;20112;-62
2021/08/21 04:32:39;;;;;;;6.75;2.10;;;;;;;22.67;50.04;101517.97;5033230;28;20087;-61
2021/08/21 04:35:05;;;;;;;5.72;2.60;;;;;;;22.66;51.19;101516.25;5033232;28;20037;-61
2021/08/21 04:37:31;;;;;;;4.57;1.70;;;;;;;22.59;51.02;101508.78;5033087;28;20029;-61
2021/08/21 04:39:56;;;;;;;5.55;2.20;;;;;;;22.62;50.43;101508.41;5033573;28;20052;-62
2021/08/21 04:42:21;;;;;;;2.60;1.77;;;;;;;22.61;51.00;101523.09;5033751;28;20037;-61
2021/08/21 04:44:46;;;;;;;5.10;1.70;;;;;;;22.60;51.14;101518.69;5031916;28;20033;-61
2021/08/21 04:47:12;;;;;;;3.35;2.50;;;;;;;22.60;50.36;101524.16;5033128;28;20060;-61
2021/08/21 04:49:37;;;;;;;3.67;2.13;;;;;;;22.58;51.07;101515.28;5033331;28;20458;-62
2021/08/21 04:52:03;;;;;;;5.68;2.17;;;;;;;22.58;50.71;101523.47;5031799;28;20405;-62
2021/08/21 04:54:28;;;;;;;3.10;2.40;;;;;;;22.59;51.18;101522.44;5033257;28;20388;-61
2021/08/21 04:56:54;;;;;;;2.63;2.40;;;;;;;22.58;50.15;101528.94;5033349;28;20034;-62
2021/08/21 04:59:19;;;;;;;7.15;2.50;;;;;;;22.58;50.03;101523.47;5033354;28;20112;-61
2021/08/21 05:01:44;;;;;;;5.63;2.67;;;;;;;22.58;50.25;101526.19;5033474;28;20083;-61
2021/08/21 05:04:10;;;;;;;7.55;2.17;;;;;;;22.59;51.17;101525.19;5033049;28;20112;-61
2021/08/21 05:06:35;;;;;;;4.53;3.47;;;;;;;22.55;50.23;101525.75;5033257;28;20037;-61
2021/08/21 05:09:01;;;;;;;5.10;2.70;;;;;;;22.60;51.11;101540.53;5033139;28;20076;-61
2021/08/21 05:11:26;;;;;;;9.27;2.63;;;;;;;22.63;51.11;101536.56;5033003;28;20040;-61
2021/08/21 05:13:51;;;;;;;4.38;2.25;;;;;;;22.66;51.02;101549.03;5033409;28;20029;-61
2021/08/21 05:16:17;;;;;;;4.88;2.40;;;;;;;22.66;50.08;101543.56;5033442;28;20497;-61
2021/08/21 05:19:28;;;;;;;3.08;2.17;;;;;;;22.67;51.12;101548.81;5036839;28;20036;-62
2021/08/21 05:21:33;;;;;;;3.65;2.20;;;;;;;22.67;50.29;101546.09;5033554;28;20046;-62
2021/08/21 05:23:59;;;;;;;5.18;1.90;;;;;;;22.69;49.88;101549.50;5036907;28;20094;-62
2021/08/21 05:26:25;;;;;;;4.25;2.25;;;;;;;22.71;50.18;101550.16;5036593;28;20061;-62
2021/08/21 05:28:51;;;;;;;4.70;2.60;;;;;;;22.73;50.44;101550.81;5036176;28;20037;-62
2021/08/21 05:31:16;;;;;;;2.28;1.67;;;;;;;22.78;50.16;101544.78;5036522;28;20041;-61
2021/08/21 05:33:42;;;;;;;4.93;2.03;;;;;;;22.80;50.93;101540.81;5035322;28;20382;-62
2021/08/21 05:36:07;;;;;;;3.88;2.15;;;;;;;22.84;50.14;101535.78;5018329;28;20029;-61
2021/08/21 05:38:33;;;;;;;5.07;2.70;;;;;;;22.88;50.33;101548.06;5036481;28;20033;-62
2021/08/21 05:40:58;;;;;;;3.50;2.45;;;;;;;22.91;51.15;101534.00;5036305;28;20030;-62
2021/08/21 05:43:23;;;;;;;2.35;1.80;;;;;;;22.97;51.03;101535.97;5036382;28;20033;-61
2021/08/21 05:45:49;;;;;;;6.57;1.92;;;;;;;23.01;50.96;101531.81;5035995;28;20083;-62
2021/08/21 05:48:14;;;;;;;3.85;2.08;;;;;;;23.08;50.58;101539.06;5036449;28;20026;-62
2021/08/21 05:50:40;;;;;;;4.88;2.65;;;;;;;23.16;50.99;101533.47;5036068;28;20034;-62
2021/08/21 05:53:05;;;;;;;2.55;2.08;;;;;;;23.26;50.81;101533.13;5035814;28;20057;-62
2021/08/21 05:55:31;;;;;;;5.03;2.90;;;;;;;23.37;50.98;101538.06;5034485;28;20029;-62
2021/08/21 05:57:56;;;;;;;8.80;2.60;;;;;;;23.56;50.41;101537.44;5035684;28;20083;-62
2021/08/21 06:00:24;;;;;;;4.30;2.72;;;;;;;23.78;49.63;101538.28;5036713;28;20029;-62
2021/08/21 06:02:49;;;;;;;3.72;2.75;;;;;;;24.00;49.56;101539.94;5035501;28;20502;-62
2021/08/21 06:05:14;;;;;;;3.10;2.47;;;;;;;24.23;50.23;101547.94;5035544;28;20045;-62
2021/08/21 06:07:40;;;;;;;3.55;2.70;;;;;;;24.43;50.15;101545.31;5035816;28;20385;-62
2021/08/21 06:10:06;;;;;;;6.10;2.42;;;;;;;24.63;49.12;101555.31;5034141;28;20093;-62
2021/08/21 06:12:31;;;;;;;6.05;2.28;;;;;;;24.85;49.19;101545.94;5034737;28;20486;-62
2021/08/21 06:14:57;;;;;;;5.68;2.60;;;;;;;25.06;49.34;101546.88;5034146;28;20033;-62
2021/08/21 06:17:22;;;;;;;4.72;2.45;;;;;;;25.24;49.09;101545.22;5034053;28;20025;-62
2021/08/21 06:19:47;;;;;;;4.88;3.05;;;;;;;25.42;48.98;101550.97;5035808;28;20017;-62
2021/08/21 06:22:13;;;;;;;4.40;2.63;;;;;;;25.62;48.82;101544.69;5035516;28;20466;-62
2021/08/21 06:24:40;;;;;;;5.07;2.45;;;;;;;25.79;48.59;101544.06;5035518;28;20091;-62
2021/08/21 06:27:06;;;;;;;3.92;2.88;;;;;;;25.96;48.38;101556.28;5035373;28;20525;-62
2021/08/21 06:29:35;;;;;;;5.43;2.80;;;;;;;26.18;48.03;101553.34;5035074;28;20040;-62
2021/08/21 06:32:04;;;;;;;3.10;2.67;;;;;;;26.37;48.35;101549.72;5035631;28;20037;-62
2021/08/21 06:34:30;;;;;;;5.65;2.80;;;;;;;26.56;48.22;101548.81;5034016;28;20025;-62
2021/08/21 06:36:56;;;;;;;3.47;2.70;;;;;;;26.74;48.00;101551.72;5034940;28;20501;-62
2021/08/21 06:39:22;;;;;;;3.70;2.72;;;;;;;26.84;48.01;101537.53;5035440;28;20112;-60
2021/08/21 06:41:47;;;;;;;3.58;2.17;;;;;;;27.08;47.36;101547.81;5034803;28;20064;-60
2021/08/21 06:44:12;;;;;;;4.22;2.78;;;;;;;27.23;48.13;101542.81;5035085;28;20543;-60
2021/08/21 06:46:38;;;;;;;4.50;2.60;;;;;;;27.40;47.11;101538.47;5034709;28;20021;-60
2021/08/21 06:49:03;;;;;;;4.93;2.78;;;;;;;27.54;46.74;101531.84;5034734;28;20030;-60
2021/08/21 06:51:29;;;;;;;3.13;2.55;;;;;;;27.68;46.91;101524.31;5033448;28;20110;-60
2021/08/21 06:53:54;;;;;;;3.40;2.70;;;;;;;27.85;47.15;101527.34;5034866;28;20033;-60
2021/08/21 06:56:19;;;;;;;6.32;2.95;;;;;;;28.00;46.49;101531.44;5035116;28;20069;-60
2021/08/21 06:58:45;;;;;;;7.03;3.75;;;;;;;28.16;47.21;101528.16;5035030;28;20033;-60
2021/08/21 07:01:10;;;;;;;4.50;2.78;;;;;;;28.34;45.77;101530.06;5034804;28;20030;-60
2021/08/21 07:03:36;;;;;;;2.45;2.05;;;;;;;28.51;46.60;101530.31;5034396;28;20045;-60
2021/08/21 07:06:01;;;;;;;3.35;2.38;;;;;;;28.68;46.33;101525.88;5033358;28;20037;-60
2021/08/21 07:08:27;;;;;;;3.83;2.45;;;;;;;28.85;45.17;101526.94;5034269;28;20385;-60
2021/08/21 07:10:52;;;;;;;4.22;2.50;;;;;;;29.03;46.02;101528.84;5034141;28;20060;-59
2021/08/21 07:13:17;;;;;;;8.45;2.28;;;;;;;29.18;45.11;101527.31;5034278;28;20040;-60
2021/08/21 07:15:43;;;;;;;6.07;2.55;;;;;;;29.34;44.57;101520.34;5034461;28;20459;-60
2021/08/21 07:18:08;;;;;;;7.05;2.72;;;;;;;29.49;44.72;101520.72;5034988;28;20122;-60
2021/08/21 07:20:34;;;;;;;7.00;3.30;;;;;;;29.63;44.84;101524.09;5034615;28;20036;-60
2021/08/21 07:23:02;;;;;;;4.65;2.22;;;;;;;29.80;43.94;101522.38;5034754;28;20029;-60
2021/08/21 07:25:27;;;;;;;4.38;2.42;;;;;;;29.95;43.81;101525.50;5034058;28;20470;-60
2021/08/21 07:27:53;;;;;;;3.15;2.28;;;;;;;30.12;43.96;101529.25;5034305;28;20034;-60
2021/08/21 07:30:18;;;;;;;3.35;2.55;;;;;;;30.25;43.58;101534.50;5034192;28;20037;-60
2021/08/21 07:32:43;;;;;;;3.92;2.83;;;;;;;30.39;43.46;101526.84;5034542;28;20065;-60
2021/08/21 07:35:09;;;;;;;3.42;2.35;;;;;;;30.51;43.36;101528.47;5051611;28;20489;-60
2021/08/21 07:37:36;;;;;;;4.47;2.58;;;;;;;30.62;43.28;101529.56;5054026;28;20481;-60
2021/08/21 07:40:03;;;;;;;4.93;2.35;;;;;;;30.77;42.87;101531.78;5053670;28;20033;-60
2021/08/21 07:42:28;;;;;;;4.43;2.70;;;;;;;30.89;43.34;101522.38;5052512;28;20032;-60
2021/08/21 07:44:54;;;;;;;4.20;2.85;;;;;;;31.03;42.41;101525.72;5053984;28;20036;-59
2021/08/21 07:47:19;;;;;;;4.35;2.47;;;;;;;31.14;42.50;101530.38;5053853;28;20028;-60
2021/08/21 07:49:45;;;;;;;3.70;2.13;;;;;;;31.27;42.41;101532.81;5053909;28;20492;-60
2021/08/21 07:52:10;;;;;;;5.43;2.95;;;;;;;31.35;42.37;101529.63;5053945;28;20033;-60
2021/08/21 07:54:35;;;;;;;3.28;2.25;;;;;;;31.26;42.27;101539.47;5054004;28;20036;-60
2021/08/21 07:57:01;;;;;;;4.40;2.58;;;;;;;31.36;42.47;101536.03;5052644;28;20035;-60
2021/08/21 07:59:26;;;;;;;3.42;2.58;;;;;;;31.59;42.01;101525.69;5053827;28;20028;-60
2021/08/21 08:01:51;;;;;;;3.25;2.30;;;;;;;31.79;41.59;101527.13;5053882;28;20029;-60
2021/08/21 08:04:17;;;;;;;2.80;2.03;;;;;;;31.96;41.56;101525.19;5052322;28;20029;-60
2021/08/21 08:06:42;;;;;;;2.83;2.40;;;;;;;32.12;41.07;101524.34;5053960;28;20481;-60
2021/08/21 08:09:08;;;;;;;5.40;2.40;;;;;;;32.24;40.70;101530.63;5053209;28;20132;-60
2021/08/21 08:11:33;;;;;;;3.13;2.05;;;;;;;32.38;41.49;101520.00;5054029;28;20029;-60
2021/08/21 08:13:58;;;;;;;4.28;1.95;;;;;;;32.46;41.60;101525.94;5053459;28;20061;-60
2021/08/21 08:16:24;;;;;;;3.58;2.28;;;;;;;32.61;40.90;101528.94;5053997;28;20025;-61
2021/08/21 08:18:49;;;;;;;2.47;1.88;;;;;;;32.77;41.33;101522.50;5053417;28;20035;-61
2021/08/21 08:21:18;;;;;;;7.10;3.15;;;;;;;32.95;40.82;101528.78;5052701;28;20035;-61
2021/08/21 08:23:43;;;;;;;3.83;1.92;;;;;;;33.11;40.55;101522.38;5053607;28;20049;-61
2021/08/21 08:26:09;;;;;;;1.90;1.50;;;;;;;33.26;40.56;101516.94;5053836;28;20123;-60
2021/08/21 08:28:34;;;;;;;2.40;1.73;;;;;;;33.40;39.28;101518.19;5053575;28;20377;-60
2021/08/21 08:30:59;;;;;;;4.88;2.05;;;;;;;33.55;39.79;101511.94;5053791;28;20033;-61
2021/08/21 08:33:25;;;;;;;6.25;1.98;;;;;;;33.70;39.38;101515.72;5052073;28;20119;-61
2021/08/21 08:35:51;;;;;;;3.13;2.75;;;;;;;33.85;39.59;101507.50;5053475;28;20025;-60
2021/08/21 08:38:18;;;;;;;5.10;1.60;;;;;;;34.02;38.55;101512.06;5053135;28;20021;-61
2021/08/21 08:40:44;;;;;;;5.22;2.30;;;;;;;34.14;38.12;101509.97;5052120;28;20021;-60
2021/08/21 08:43:09;;;;;;;2.38;1.75;;;;;;;34.29;38.82;101508.09;5053676;28;20029;-60
2021/08/21 08:45:35;;;;;;;3.65;1.73;;;;;;;34.45;38.21;101522.94;5053155;28;20036;-61
2021/08/21 08:48:00;;;;;;;5.05;1.77;;;;;;;34.60;37.92;101514.69;5053721;28;20053;-60
2021/08/21 08:50:27;;;;;;;3.90;1.92;;;;;;;34.74;37.74;101507.50;5053593;28;20415;-60
2021/08/21 08:52:53;;;;;;;2.53;1.58;;;;;;;34.89;37.26;101520.66;5055193;28;20409;-60
2021/08/21 08:55:18;;;;;;;2.00;1.38;;;;;;;34.96;37.82;101513.69;5056926;28;20025;-60
2021/08/21 08:57:47;;;;;;;4.18;1.40;;;;;;;35.07;37.45;101518.22;5057199;28;20542;-60
2021/08/21 09:00:19;;;;;;;1.85;1.63;;;;;;;35.22;37.52;101511.00;5057454;28;20046;-60
2021/08/21 09:02:47;;;;;;;3.63;1.92;;;;;;;35.34;36.76;101514.38;5056629;28;20016;-60
2021/08/21 09:05:14;;;;;;;3.50;2.08;;;;;;;35.48;37.22;101515.50;5056940;28;20207;-60
2021/08/21 09:07:51;;;;;;;3.08;1.85;;;;;;;35.59;36.43;101517.22;5055793;28;20380;-60
2021/08/21 09:10:19;;;;;;;2.05;1.50;;;;;;;35.68;36.52;101509.94;5056579;28;20102;-60
2021/08/21 09:13:06;;;;;;;5.78;2.72;;;;;;;35.83;35.94;101518.31;5056654;28;20057;-61
2021/08/21 09:15:33;;;;;;;2.15;1.60;;;;;;;35.99;35.64;101517.16;5057020;28;20037;-61
2021/08/21 09:18:00;;;;;;;3.10;1.50;;;;;;;36.06;35.42;101501.00;5056810;28;20364;-60
2021/08/21 09:20:26;;;;;;;4.85;1.33;;;;;;;36.14;35.77;101502.38;5056420;28;20077;-60
2021/08/21 09:22:51;;;;;;;1.85;1.33;;;;;;;36.29;35.12;101504.31;5056603;28;20100;-61
2021/08/21 09:25:30;;;;;;;1.88;1.20;;;;;;;36.39;34.89;101499.50;5056661;28;20427;-61
2021/08/21 09:27:55;;;;;;;1.02;0.93;;;;;;;36.50;34.67;101506.75;5056263;28;20044;-61
2021/08/21 09:30:21;;;;;;;1.80;1.00;;;;;;;36.57;35.09;101506.47;5056715;28;20069;-61
2021/08/21 09:32:46;;;;;;;1.45;1.02;;;;;;;36.66;34.06;101504.72;5056486;28;20021;-61
2021/08/21 09:35:13;;;;;;;1.48;0.75;;;;;;;36.75;34.51;101503.03;5056196;28;20025;-61
2021/08/21 09:37:52;;;;;;;1.17;0.80;;;;;;;36.87;33.50;101505.47;5056347;28;20049;-61
2021/08/21 09:40:31;;;;;;;1.00;0.90;;;;;;;36.96;33.19;101507.44;5055435;28;20021;-60
2021/08/21 09:42:57;;;;;;;2.72;0.95;;;;;;;37.13;33.34;101504.25;5056170;28;20025;-61
2021/08/21 09:45:23;;;;;;;0.77;0.77;;;;;;;37.25;32.89;101501.91;5056025;28;20033;-60
2021/08/21 09:47:48;;;;;;;0.75;0.68;;;;;;;37.46;32.51;101509.06;5056474;28;20024;-61
2021/08/21 09:50:15;;;;;;;0.90;0.82;;;;;;;37.62;32.25;101506.97;5056112;28;20063;-61
2021/08/21 09:52:42;;;;;;;2.38;0.95;;;;;;;37.88;31.76;101505.66;5056053;28;20029;-61
2021/08/21 09:55:10;;;;;;;1.83;1.00;;;;;;;38.17;31.38;101498.03;5038020;28;20492;-61
2021/08/21 09:57:36;;;;;;;1.45;1.40;;;;;;;38.69;31.09;101499.13;5038111;28;20386;-61
2021/08/21 10:00:03;;;;;;;0.57;0.57;;;;;;;39.44;29.64;101509.28;5056077;28;20519;-61
2021/08/21 10:02:30;;;;;;;1.05;0.60;;;;;;;40.63;28.33;101508.50;5055638;28;20060;-61
2021/08/21 10:04:55;;;;;;;0.50;0.50;;;;;;;41.20;27.62;101504.13;5055541;28;20025;-61
2021/08/21 10:07:25;;;;;;;1.45;0.80;;;;;;;40.73;27.99;101494.25;5056032;28;20051;-60
2021/08/21 10:09:53;;;;;;;2.38;0.60;;;;;;;40.39;28.68;101500.28;5055310;28;20432;-61
2021/08/21 10:12:21;;;;;;;1.30;0.70;;;;;;;40.09;28.92;101500.88;5055983;28;20405;-61
2021/08/21 10:14:47;;;;;;;1.08;0.52;;;;;;;39.98;29.11;101494.56;5055729;28;20055;-60
2021/08/21 10:17:20;;;;;;;1.00;0.50;;;;;;;40.02;28.58;101483.56;5055620;28;20017;-60
2021/08/21 10:19:47;;;;;;;0.52;0.50;;;;;;;40.09;27.99;101490.47;5054736;28;20457;-60
2021/08/21 10:22:12;;;;;;;0.63;0.60;;;;;;;40.21;28.08;101492.75;5055311;28;20029;-60
2021/08/21 10:24:43;;;;;;;1.10;0.57;;;;;;;40.35;28.17;101487.97;5054690;28;20021;-61
2021/08/21 10:27:35;;;;;;;0.47;0.47;;;;;;;40.51;27.80;101472.50;5055218;28;20048;-60
2021/08/21 10:30:00;;;;;;;;;;;;;;;40.70;28.59;101475.19;5054713;28;20037;-61
2021/08/21 10:32:39;;;;;;;1.08;0.70;;;;;;;40.78;27.40;101476.41;5055154;28;19919;-61
2021/08/21 10:35:05;;;;;;;0.85;0.85;;;;;;;40.92;27.88;101468.81;5055063;28;20381;-61
2021/08/21 10:37:45;;;;;;;1.75;0.50;;;;;;;40.49;28.46;101477.59;5054937;28;20033;-61
2021/08/21 10:40:25;;;;;;;36.10;2.97;;;;;;;40.80;27.40;101466.50;5055160;28;20583;-61
2021/08/21 10:42:55;;;;;;;9.82;1.42;;;;;;;41.00;27.36;101470.88;5055348;28;20033;-60
2021/08/21 10:45:38;;;;;;;5.53;1.13;;;;;;;41.35;27.32;101475.66;5053568;28;20581;-60
2021/08/21 10:48:05;;;;;;;58.20;5.25;;;;;;;41.68;27.00;101465.75;5054987;28;20036;-61
2021/08/21 10:50:33;;;;;;;10.90;1.05;;;;;;;41.96;26.76;101474.06;5054511;28;20037;-60
2021/08/21 10:53:05;;;;;;;1.85;1.02;;;;;;;41.93;26.44;101461.47;5055435;28;20515;-60
2021/08/21 10:55:38;;;;;;;3.28;0.85;;;;;;;42.26;26.60;101460.00;5053340;28;20536;-60
2021/08/21 10:58:11;;;;;;;44.17;4.22;;;;;;;42.57;25.71;101459.94;5055071;28;20029;-61
2021/08/21 11:00:39;;;;;;;1.33;1.17;;;;;;;42.79;26.19;101459.81;5054767;28;20024;-60
2021/08/21 11:03:05;;;;;;;1.00;1.00;;;;;;;42.93;26.03;101457.66;5055171;28;20063;-61
2021/08/21 11:05:48;;;;;;;0.57;0.57;;;;;;;42.83;25.28;101457.13;5054659;28;20480;-61
2021/08/21 11:08:15;;;;;;;9.32;1.20;;;;;;;42.75;25.44;101458.78;5054651;28;20056;-61
2021/08/21 11:10:40;;;;;;;41.22;4.90;;;;;;;42.71;25.76;101460.63;5054036;28;20049;-60
2021/08/21 11:13:08;;;;;;;35.80;4.68;;;;;;;42.77;25.37;101456.47;5054974;28;20496;-61
2021/08/21 11:15:34;;;;;;;2.03;0.73;;;;;;;41.83;26.22;101450.47;5054646;28;20412;-61
2021/08/21 11:18:00;;;;;;;1.85;0.70;;;;;;;41.37;26.74;101456.47;5053283;28;20025;-61
2021/08/21 11:20:27;;;;;;;11.23;1.33;;;;;;;41.82;26.02;101445.19;5052973;28;20098;-61
2021/08/21 11:23:13;;;;;;;14.20;1.67;;;;;;;42.11;25.82;101434.19;5052983;28;20028;-61